Time;durP1;ratioP1;P1;durP2;ratioP2;P2;SDS_P1;SDS_P2;PMS_P1;PMS_P2;Temp;Humidity;BMP_temperature;BMP_pressure;BME280_temperature;BME280_humidity;BME280_pressure;Samples;Min_cycle;Max_cycle;Signal;HPM_P1;HPM_P2
2023/10/22 00:02:11;;;;;;;36.37;7.17;;;13.80;1.00;;;;;;5035671;28;20890;-76
2023/10/22 00:04:38;;;;;;;38.30;6.00;;;13.80;1.00;;;;;;5034404;28;20400;-78
2023/10/22 00:07:04;;;;;;;36.37;7.03;;;13.70;1.00;;;;;;5018082;28;20806;-78
2023/10/22 00:09:30;;;;;;;36.27;7.40;;;13.80;1.00;;;;;;5036032;28;20458;-78
2023/10/22 00:11:56;;;;;;;35.90;6.03;;;13.80;1.00;;;;;;5035820;28;20476;-78
2023/10/22 00:14:21;;;;;;;37.77;7.87;;;13.80;1.00;;;;;;5036014;28;20162;-78
2023/10/22 00:16:47;;;;;;;40.70;6.17;;;13.80;1.00;;;;;;5035955;28;20225;-78
2023/10/22 00:19:13;;;;;;;35.70;7.43;;;13.80;1.00;;;;;;5035256;28;20198;-75
2023/10/22 00:21:38;;;;;;;35.93;7.77;;;13.80;1.00;;;;;;5034259;28;20204;-76
2023/10/22 00:24:04;;;;;;;39.80;7.57;;;13.70;1.00;;;;;;5033955;28;20194;-75
2023/10/22 00:26:30;;;;;;;37.13;7.43;;;13.70;1.00;;;;;;5033983;28;20201;-78
2023/10/22 00:28:55;;;;;;;37.43;6.43;;;13.70;1.00;;;;;;5034894;28;20444;-75
2023/10/22 00:31:21;;;;;;;35.97;6.90;;;13.60;1.00;;;;;;5033866;28;20189;-76
2023/10/22 00:33:47;;;;;;;37.67;7.77;;;13.70;1.00;;;;;;5033712;28;20189;-75
2023/10/22 00:36:12;;;;;;;38.07;8.00;;;13.70;1.00;;;;;;5034034;28;20173;-76
2023/10/22 00:38:38;;;;;;;38.00;7.60;;;13.60;1.00;;;;;;5033789;28;20170;-76
2023/10/22 00:41:04;;;;;;;36.87;7.40;;;13.60;1.00;;;;;;5033988;28;20162;-76
2023/10/22 00:43:29;;;;;;;38.07;6.70;;;13.70;1.00;;;;;;5033672;28;20188;-76
2023/10/22 00:45:55;;;;;;;38.27;7.00;;;13.60;1.00;;;;;;5033736;28;20188;-76
2023/10/22 00:48:22;;;;;;;42.10;9.30;;;13.70;1.00;;;;;;5033584;28;20165;-76
2023/10/22 00:50:48;;;;;;;38.47;8.37;;;13.60;1.00;;;;;;5015739;28;20467;-76
2023/10/22 00:53:16;;;;;;;38.77;9.37;;;13.60;1.00;;;;;;5033381;28;20531;-75
2023/10/22 00:55:45;;;;;;;42.87;11.17;;;13.60;1.60;;;;;;5015730;28;20456;-75
2023/10/22 00:58:12;;;;;;;39.80;13.10;;;13.50;6.60;;;;;;5033678;28;20408;-76
2023/10/22 01:00:39;;;;;;;39.97;10.20;;;13.50;9.70;;;;;;5033396;28;20411;-76
2023/10/22 01:03:05;;;;;;;40.47;12.67;;;13.50;9.40;;;;;;5033269;28;20431;-76
2023/10/22 01:05:35;;;;;;;40.90;12.90;;;13.40;11.90;;;;;;5033570;28;20401;-76
2023/10/22 01:08:01;;;;;;;39.73;13.70;;;13.40;15.60;;;;;;5015587;28;20466;-75
2023/10/22 01:10:27;;;;;;;40.97;13.57;;;13.40;15.20;;;;;;5033188;28;20448;-75
2023/10/22 01:12:53;;;;;;;41.13;13.37;;;13.50;16.80;;;;;;5033130;28;20438;-75
2023/10/22 01:15:18;;;;;;;43.60;16.43;;;13.40;24.40;;;;;;5015430;28;20512;-76
2023/10/22 01:17:44;;;;;;;46.23;17.90;;;13.30;31.20;;;;;;5033146;28;20211;-76
2023/10/22 01:20:10;;;;;;;45.20;19.27;;;13.30;36.80;;;;;;5033166;28;20190;-76
2023/10/22 01:22:36;;;;;;;44.63;17.33;;;13.30;37.80;;;;;;5033039;28;20663;-75
2023/10/22 01:25:02;;;;;;;46.10;18.70;;;13.40;41.50;;;;;;5033107;28;20454;-75
2023/10/22 01:27:28;;;;;;;46.23;18.60;;;13.40;42.00;;;;;;5033075;28;20257;-76
2023/10/22 01:29:53;;;;;;;45.10;18.57;;;13.30;47.70;;;;;;5032940;28;20540;-75
2023/10/22 01:32:19;;;;;;;46.03;19.90;;;13.30;48.50;;;;;;5032935;28;20642;-76
2023/10/22 01:34:44;;;;;;;46.67;21.90;;;13.30;53.50;;;;;;5033270;28;20631;-78
2023/10/22 01:37:10;;;;;;;45.43;20.47;;;13.30;51.90;;;;;;5033380;28;20631;-76
2023/10/22 01:39:36;;;;;;;45.70;19.10;;;13.30;53.90;;;;;;5032979;28;20165;-75
2023/10/22 01:42:04;;;;;;;48.30;21.27;;;13.30;60.60;;;;;;5032868;28;20732;-75
2023/10/22 01:44:29;;;;;;;46.92;20.17;;;13.30;62.10;;;;;;5032916;28;20407;-76
2023/10/22 01:46:55;;;;;;;52.10;19.93;;;13.40;58.00;;;;;;5035731;28;20166;-76
2023/10/22 01:49:21;;;;;;;47.77;22.83;;;13.30;62.30;;;;;;5037597;28;20186;-78
2023/10/22 01:51:47;;;;;;;50.20;25.20;;;13.30;65.80;;;;;;5038467;28;20666;-78
2023/10/22 01:54:13;;;;;;;49.63;26.27;;;13.30;70.80;;;;;;5038639;28;20595;-78
2023/10/22 01:56:39;;;;;;;53.33;27.00;;;13.20;76.00;;;;;;5038753;28;20396;-78
2023/10/22 01:59:05;;;;;;;50.07;25.37;;;13.30;76.30;;;;;;5038349;28;20557;-78
2023/10/22 02:01:31;;;;;;;48.97;24.23;;;13.40;76.20;;;;;;5038205;28;20166;-78
2023/10/22 02:03:57;;;;;;;50.90;23.80;;;13.30;79.60;;;;;;5037797;28;20439;-76
2023/10/22 02:06:24;;;;;;;52.90;28.50;;;13.30;79.00;;;;;;5037155;28;20408;-76
2023/10/22 02:08:49;;;;;;;51.83;31.50;;;13.30;81.90;;;;;;5036466;28;20265;-76
2023/10/22 02:11:15;;;;;;;54.00;34.43;;;13.20;88.10;;;;;;5036474;28;20498;-75
2023/10/22 02:13:41;;;;;;;51.67;31.50;;;13.20;92.30;;;;;;5036445;28;20181;-76
2023/10/22 02:16:07;;;;;;;52.83;32.10;;;13.20;91.30;;;;;;5036527;28;20388;-76
2023/10/22 02:18:32;;;;;;;51.70;27.10;;;13.30;91.70;;;;;;5036643;28;20165;-76
2023/10/22 02:20:59;;;;;;;52.37;32.37;;;13.20;93.90;;;;;;5018613;28;20166;-76
2023/10/22 02:23:26;;;;;;;52.10;27.37;;;13.30;94.20;;;;;;5036251;28;20217;-76
2023/10/22 02:25:51;;;;;;;52.00;28.13;;;13.30;93.00;;;;;;5036304;28;20499;-75
2023/10/22 02:28:18;;;;;;;52.53;32.27;;;13.20;94.80;;;;;;5036189;28;20940;-76
2023/10/22 02:30:47;;;;;;;54.27;29.00;;;13.20;95.40;;;;;;5036076;28;20200;-75
2023/10/22 02:33:13;;;;;;;56.20;37.70;;;13.20;95.70;;;;;;5036205;28;20507;-76
2023/10/22 02:35:42;;;;;;;61.13;35.43;;;13.20;98.30;;;;;;5036074;28;20244;-76
2023/10/22 02:38:13;;;;;;;52.65;34.38;;;13.10;99.90;;;;;;5035989;28;20483;-76
2023/10/22 02:40:39;;;;;;;55.10;38.85;;;13.20;99.90;;;;;;5036242;28;20225;-76
2023/10/22 02:43:05;;;;;;;55.13;40.10;;;13.20;99.90;;;;;;5035945;28;20190;-76
2023/10/22 02:45:31;;;;;;;51.90;32.77;;;13.20;99.90;;;;;;5036438;28;20399;-76
2023/10/22 02:47:58;;;;;;;53.93;39.70;;;13.30;99.90;;;;;;5036090;28;20503;-75
2023/10/22 02:50:24;;;;;;;55.90;36.97;;;13.20;99.90;;;;;;5035675;28;20190;-75
2023/10/22 02:52:50;;;;;;;53.40;37.63;;;13.20;99.90;;;;;;5035614;28;20459;-75
2023/10/22 02:55:17;;;;;;;55.20;40.00;;;13.20;99.90;;;;;;5035916;28;20409;-78
2023/10/22 02:57:43;;;;;;;53.90;37.27;;;13.20;99.90;;;;;;5036029;28;20455;-78
2023/10/22 03:00:10;;;;;;;60.23;40.50;;;13.20;99.90;;;;;;5037440;28;20408;-78
2023/10/22 03:02:37;;;;;;;56.07;41.33;;;13.20;99.90;;;;;;5037412;28;20429;-77
2023/10/22 03:05:03;;;;;;;58.00;41.50;;;13.10;99.90;;;;;;5037473;28;20407;-78
2023/10/22 03:07:29;;;;;;;55.83;40.63;;;13.20;99.90;;;;;;5037338;28;20909;-78
2023/10/22 03:09:55;;;;;;;59.20;39.70;;;13.20;99.90;;;;;;5037077;28;20445;-78
2023/10/22 03:12:20;;;;;;;59.83;48.73;;;13.10;99.90;;;;;;5037018;28;20178;-79
2023/10/22 03:14:48;;;;;;;58.57;41.00;;;13.20;99.90;;;;;;5037131;28;20193;-78
2023/10/22 03:17:13;;;;;;;54.20;35.53;;;13.20;99.90;;;;;;5037075;28;20542;-78
2023/10/22 03:19:39;;;;;;;58.90;49.30;;;13.20;99.90;;;;;;5036559;28;20472;-78
2023/10/22 03:22:05;;;;;;;60.00;50.57;;;13.10;99.90;;;;;;5037000;28;20169;-78
2023/10/22 03:24:30;;;;;;;58.13;45.40;;;13.10;99.90;;;;;;5037091;28;20170;-78
2023/10/22 03:26:59;;;;;;;59.03;46.13;;;13.10;99.90;;;;;;5037046;28;20166;-78
2023/10/22 03:29:25;;;;;;;58.65;46.50;;;13.10;99.90;;;;;;5036246;28;20228;-78
2023/10/22 03:31:52;;;;;;;59.80;47.20;;;13.10;99.90;;;;;;5035425;28;20201;-78
2023/10/22 03:34:18;;;;;;;63.57;55.00;;;13.10;99.90;;;;;;5035807;28;20420;-77
2023/10/22 03:36:44;;;;;;;59.33;45.80;;;13.20;99.90;;;;;;5035646;28;20243;-78
2023/10/22 03:39:11;;;;;;;60.00;50.70;;;13.10;99.90;;;;;;5035728;28;20166;-78
2023/10/22 03:41:41;;;;;;;57.53;43.42;;;13.10;99.90;;;;;;5035412;28;20404;-78
2023/10/22 03:44:07;;;;;;;58.03;44.03;;;13.10;99.90;;;;;;5035350;28;20223;-78
2023/10/22 03:46:33;;;;;;;58.53;45.30;;;13.20;99.90;;;;;;5035187;28;20401;-77
2023/10/22 03:48:58;;;;;;;58.70;45.27;;;13.10;99.90;;;;;;5035206;28;20193;-78
2023/10/22 03:51:24;;;;;;;59.13;43.47;;;13.10;99.90;;;;;;5035259;28;20189;-78
2023/10/22 03:53:53;;;;;;;58.47;46.47;;;13.10;99.90;;;;;;5035428;28;20200;-78
2023/10/22 03:56:20;;;;;;;56.47;38.97;;;13.10;99.90;;;;;;5035292;28;20747;-78
2023/10/22 03:58:45;;;;;;;58.97;43.33;;;13.00;99.90;;;;;;5035661;28;20397;-77
2023/10/22 04:01:11;;;;;;;59.07;47.23;;;13.10;99.90;;;;;;5035174;28;20404;-78
2023/10/22 04:03:36;;;;;;;57.77;41.07;;;13.10;99.90;;;;;;5035225;28;20189;-77
2023/10/22 04:06:03;;;;;;;63.73;52.67;;;13.10;99.90;;;;;;5035051;28;20221;-77
2023/10/22 04:08:29;;;;;;;58.08;41.28;;;13.10;99.90;;;;;;5034687;28;20158;-78
2023/10/22 04:10:55;;;;;;;58.73;43.50;;;13.10;99.90;;;;;;5034711;28;20610;-78
2023/10/22 04:13:21;;;;;;;59.93;48.97;;;13.10;99.90;;;;;;5034942;28;20551;-78
2023/10/22 04:15:48;;;;;;;57.80;41.23;;;13.10;99.90;;;;;;5035244;28;20403;-78
2023/10/22 04:18:16;;;;;;;59.67;46.83;;;13.10;99.90;;;;;;5034743;28;20814;-78
2023/10/22 04:20:42;;;;;;;58.20;43.60;;;13.00;99.90;;;;;;5034642;28;20405;-77
2023/10/22 04:23:10;;;;;;;63.37;53.30;;;13.10;99.90;;;;;;5034630;28;20994;-78
2023/10/22 04:25:40;;;;;;;63.88;56.60;;;13.00;99.90;;;;;;5034600;28;20162;-78
2023/10/22 04:28:07;;;;;;;61.60;50.42;;;13.00;99.90;;;;;;5034290;28;20169;-78
2023/10/22 04:30:35;;;;;;;62.58;52.10;;;13.00;99.90;;;;;;5034197;28;20193;-78
2023/10/22 04:33:01;;;;;;;61.10;50.05;;;12.90;99.90;;;;;;5034411;28;20245;-77
2023/10/22 04:35:27;;;;;;;65.07;58.00;;;12.90;99.90;;;;;;5034327;28;20249;-77
2023/10/22 04:37:55;;;;;;;61.10;51.17;;;12.90;99.90;;;;;;5016440;28;20175;-77
2023/10/22 04:40:21;;;;;;;61.70;50.47;;;12.90;99.90;;;;;;5034118;28;20174;-78
2023/10/22 04:42:46;;;;;;;82.97;74.57;;;12.90;99.90;;;;;;5034010;28;20432;-77
2023/10/22 04:45:12;;;;;;;75.90;68.00;;;12.90;99.90;;;;;;5033871;28;20174;-78
2023/10/22 04:47:38;;;;;;;79.57;71.57;;;12.80;99.90;;;;;;5033842;28;20228;-78
2023/10/22 04:50:05;;;;;;;69.00;61.73;;;12.80;99.90;;;;;;5034056;28;20202;-78
2023/10/22 04:52:31;;;;;;;83.45;75.28;;;12.80;99.90;;;;;;5033728;28;20570;-77
2023/10/22 04:55:01;;;;;;;73.40;65.63;;;12.90;99.90;;;;;;5034309;28;20208;-78
2023/10/22 04:57:27;;;;;;;76.30;68.32;;;12.90;99.90;;;;;;5034396;28;20166;-78
2023/10/22 04:59:53;;;;;;;79.60;71.57;;;12.80;99.90;;;;;;5033889;28;20177;-77
2023/10/22 05:02:19;;;;;;;65.20;56.15;;;12.80;99.90;;;;;;5034440;28;20425;-77
2023/10/22 05:04:47;;;;;;;63.08;54.53;;;12.80;99.90;;;;;;5033763;28;20242;-77
2023/10/22 05:07:16;;;;;;;62.72;54.28;;;12.80;99.90;;;;;;5034524;28;20165;-77
2023/10/22 05:09:42;;;;;;;62.65;53.33;;;12.90;99.90;;;;;;5033848;28;20693;-78
2023/10/22 05:12:08;;;;;;;65.85;58.65;;;12.90;99.90;;;;;;5033952;28;20173;-78
2023/10/22 05:14:34;;;;;;;81.00;72.85;;;12.90;99.90;;;;;;5034078;28;20166;-78
2023/10/22 05:17:00;;;;;;;63.30;55.00;;;13.00;99.90;;;;;;5034383;28;20185;-77
2023/10/22 05:19:26;;;;;;;62.70;53.60;;;13.00;99.90;;;;;;5033971;28;20411;-78
2023/10/22 05:21:52;;;;;;;61.80;49.92;;;12.90;99.90;;;;;;5033805;28;20248;-77
2023/10/22 05:24:18;;;;;;;63.75;56.25;;;12.90;99.90;;;;;;5033868;28;20194;-77
2023/10/22 05:26:43;;;;;;;65.53;58.47;;;13.00;99.90;;;;;;5034215;28;20645;-78
2023/10/22 05:29:09;;;;;;;65.93;58.77;;;13.00;99.90;;;;;;5033768;28;20728;-77
2023/10/22 05:31:37;;;;;;;67.70;60.50;;;13.00;99.90;;;;;;5033640;28;20162;-78
2023/10/22 05:34:03;;;;;;;66.93;59.50;;;13.00;99.90;;;;;;5015856;28;20189;-78
2023/10/22 05:36:29;;;;;;;61.77;51.40;;;13.00;99.90;;;;;;5033892;28;20173;-78
2023/10/22 05:38:55;;;;;;;69.53;62.37;;;12.90;99.90;;;;;;5033860;28;20404;-78
2023/10/22 05:41:25;;;;;;;63.33;55.97;;;12.90;99.90;;;;;;5033553;28;20253;-77
2023/10/22 05:43:56;;;;;;;65.30;52.23;;;13.00;99.90;;;;;;5033850;28;20697;-77
2023/10/22 05:46:22;;;;;;;63.40;56.47;;;13.00;99.90;;;;;;5033719;28;20388;-78
2023/10/22 05:48:48;;;;;;;62.63;51.37;;;13.00;99.90;;;;;;5033465;28;20405;-77
2023/10/22 05:51:13;;;;;;;66.60;50.60;;;13.00;99.90;;;;;;5033311;28;20940;-78
2023/10/22 05:53:39;;;;;;;60.07;45.53;;;13.00;99.90;;;;;;5033759;28;20190;-78
2023/10/22 05:56:05;;;;;;;60.93;48.20;;;13.00;99.90;;;;;;5033427;28;20165;-78
2023/10/22 05:58:30;;;;;;;67.97;57.73;;;13.00;99.90;;;;;;5033470;28;20241;-77
2023/10/22 06:00:56;;;;;;;67.83;57.80;;;13.00;99.90;;;;;;5033132;28;20666;-77
2023/10/22 06:03:22;;;;;;;60.63;46.93;;;13.10;99.90;;;;;;5033169;28;20189;-78
2023/10/22 06:05:48;;;;;;;59.90;45.87;;;13.10;99.90;;;;;;5033068;28;20408;-78
2023/10/22 06:08:14;;;;;;;62.47;54.03;;;13.10;99.90;;;;;;5033065;28;20577;-77
2023/10/22 06:10:41;;;;;;;69.00;57.13;;;13.10;99.90;;;;;;5033073;28;20543;-77
2023/10/22 06:13:07;;;;;;;61.87;51.20;;;13.10;99.90;;;;;;5033592;28;20182;-77
2023/10/22 06:15:38;;;;;;;67.97;59.33;;;13.20;99.90;;;;;;5033118;28;20409;-77
2023/10/22 06:18:04;;;;;;;61.90;52.30;;;13.30;99.90;;;;;;5033223;28;20423;-77
2023/10/22 06:20:31;;;;;;;59.27;44.40;;;13.40;99.90;;;;;;5032582;28;20401;-77
2023/10/22 06:22:57;;;;;;;60.20;47.33;;;13.40;99.90;;;;;;5032519;28;20480;-77
2023/10/22 06:25:23;;;;;;;62.97;52.90;;;13.40;99.90;;;;;;5032544;28;20935;-77
2023/10/22 06:27:49;;;;;;;70.77;63.40;;;13.30;99.90;;;;;;5032799;28;20166;-77
2023/10/22 06:30:14;;;;;;;68.30;59.30;;;13.30;99.90;;;;;;5032637;28;20440;-77
2023/10/22 06:32:40;;;;;;;77.20;69.60;;;13.20;99.90;;;;;;5034127;28;20193;-77
2023/10/22 06:35:07;;;;;;;70.80;63.53;;;13.10;99.90;;;;;;5036096;28;20162;-77
2023/10/22 06:37:33;;;;;;;79.00;71.13;;;13.10;99.90;;;;;;5036323;28;20245;-77
2023/10/22 06:40:02;;;;;;;77.53;69.77;;;13.00;99.90;;;;;;5035997;28;20841;-77
2023/10/22 06:42:29;;;;;;;100.87;91.90;;;13.00;99.90;;;;;;5035765;28;20428;-77
2023/10/22 06:44:55;;;;;;;83.73;75.43;;;12.90;99.90;;;;;;5035886;28;20432;-77
2023/10/22 06:47:20;;;;;;;105.37;96.17;;;12.90;99.90;;;;;;5035786;28;20451;-77
2023/10/22 06:49:46;;;;;;;104.53;95.43;;;13.00;99.90;;;;;;5036034;28;20196;-77
2023/10/22 06:52:11;;;;;;;99.87;91.00;;;12.90;99.90;;;;;;5035734;28;20206;-77
2023/10/22 06:54:37;;;;;;;101.80;92.80;;;12.90;99.90;;;;;;5035883;28;20194;-77
2023/10/22 06:57:03;;;;;;;89.27;81.13;;;12.90;99.90;;;;;;5035960;28;20170;-77
2023/10/22 06:59:32;;;;;;;88.57;80.10;;;12.90;99.90;;;;;;5036148;28;20253;-77
2023/10/22 07:01:57;;;;;;;106.27;97.07;;;12.90;99.90;;;;;;5035519;28;20203;-77
2023/10/22 07:04:23;;;;;;;115.60;106.07;;;12.80;99.90;;;;;;5035841;28;20416;-77
2023/10/22 07:06:48;;;;;;;97.57;88.53;;;12.80;99.90;;;;;;5035761;28;20170;-77
2023/10/22 07:09:14;;;;;;;109.37;99.97;;;12.80;99.90;;;;;;5035999;28;20189;-77
2023/10/22 07:11:40;;;;;;;100.13;90.93;;;12.80;99.90;;;;;;5035359;28;20181;-77
2023/10/22 07:14:06;;;;;;;93.23;84.80;;;12.80;99.90;;;;;;5035336;28;20555;-77
2023/10/22 07:16:32;;;;;;;92.67;84.33;;;12.80;99.90;;;;;;5035596;28;20627;-77
2023/10/22 07:18:58;;;;;;;84.18;76.20;;;12.80;99.90;;;;;;5035420;28;20158;-77
2023/10/22 07:21:24;;;;;;;85.13;76.53;;;12.70;99.90;;;;;;5035538;28;20642;-77
2023/10/22 07:23:49;;;;;;;93.37;84.47;;;12.70;99.90;;;;;;5035245;28;20189;-77
2023/10/22 07:26:18;;;;;;;92.73;84.50;;;12.70;99.90;;;;;;5035512;28;20692;-77
2023/10/22 07:28:45;;;;;;;90.07;81.75;;;12.80;99.90;;;;;;5035262;28;20166;-77
2023/10/22 07:31:12;;;;;;;84.53;76.47;;;12.80;99.90;;;;;;5035058;28;20169;-77
2023/10/22 07:33:38;;;;;;;84.35;76.32;;;12.80;99.90;;;;;;5035026;28;20178;-77
2023/10/22 07:36:04;;;;;;;93.87;85.43;;;12.80;99.90;;;;;;5034953;28;20655;-77
2023/10/22 07:38:32;;;;;;;83.53;75.37;;;12.80;99.90;;;;;;5034842;28;20170;-76
2023/10/22 07:40:58;;;;;;;82.53;74.53;;;12.80;99.90;;;;;;5035065;28;20423;-76
2023/10/22 07:43:25;;;;;;;85.97;77.53;;;12.90;99.90;;;;;;5034208;28;20417;-77
2023/10/22 07:45:53;;;;;;;87.68;78.88;;;12.90;99.90;;;;;;5034661;28;20705;-77
2023/10/22 07:48:19;;;;;;;93.87;84.77;;;13.00;99.90;;;;;;5035288;28;20496;-77
2023/10/22 07:50:46;;;;;;;86.90;78.67;;;13.00;99.90;;;;;;5034571;28;21019;-77
2023/10/22 07:53:12;;;;;;;87.95;79.05;;;13.00;99.90;;;;;;5034492;28;20463;-77
2023/10/22 07:55:42;;;;;;;77.67;69.70;;;12.90;99.90;;;;;;5034885;28;20162;-77
2023/10/22 07:58:07;;;;;;;84.57;76.43;;;13.00;99.90;;;;;;5034819;28;20146;-77
2023/10/22 08:00:34;;;;;;;79.67;71.67;;;13.10;99.90;;;;;;5034462;28;20174;-77
2023/10/22 08:02:59;;;;;;;90.03;81.17;;;13.00;99.90;;;;;;5034341;28;20194;-77
2023/10/22 08:05:25;;;;;;;99.60;90.50;;;13.10;99.90;;;;;;5034404;28;20830;-77
2023/10/22 08:07:51;;;;;;;99.17;90.10;;;13.10;99.90;;;;;;5034358;28;20598;-77
2023/10/22 08:10:16;;;;;;;87.30;79.17;;;13.10;99.90;;;;;;5034258;28;20209;-77
2023/10/22 08:12:42;;;;;;;83.43;75.47;;;13.10;99.90;;;;;;5035012;28;20524;-77
2023/10/22 08:15:09;;;;;;;89.83;81.70;;;13.10;99.90;;;;;;5034436;28;20491;-77
2023/10/22 08:17:34;;;;;;;79.60;71.70;;;13.00;99.90;;;;;;5034421;28;20160;-77
2023/10/22 08:20:00;;;;;;;82.77;74.70;;;13.00;99.90;;;;;;5034072;28;20483;-77
2023/10/22 08:22:26;;;;;;;91.07;82.67;;;13.00;99.90;;;;;;5033990;28;20667;-77
2023/10/22 08:24:51;;;;;;;86.30;78.13;;;13.00;99.90;;;;;;5034016;28;20173;-77
2023/10/22 08:27:17;;;;;;;86.53;78.40;;;13.00;99.90;;;;;;5034218;28;20180;-77
2023/10/22 08:29:43;;;;;;;88.93;80.23;;;13.10;99.90;;;;;;5016083;28;20197;-77
2023/10/22 08:32:08;;;;;;;72.43;64.67;;;13.00;99.90;;;;;;5034100;28;20162;-77
2023/10/22 08:34:34;;;;;;;79.33;71.37;;;13.00;99.90;;;;;;5034109;28;20166;-77
2023/10/22 08:37:00;;;;;;;70.90;63.17;;;13.00;99.90;;;;;;5034041;28;20161;-77
2023/10/22 08:39:26;;;;;;;82.40;74.33;;;13.00;99.90;;;;;;5016046;28;20177;-77
2023/10/22 08:42:01;;;;;;;85.45;77.18;;;13.00;99.90;;;;;;5033724;28;20531;-77
2023/10/22 08:44:29;;;;;;;85.53;77.40;;;12.90;99.90;;;;;;5033766;28;20228;-77
2023/10/22 08:46:55;;;;;;;82.97;74.67;;;13.00;99.90;;;;;;5033920;28;20415;-77
2023/10/22 08:49:22;;;;;;;83.60;75.60;;;13.00;99.90;;;;;;5033502;28;20965;-77
2023/10/22 08:51:48;;;;;;;84.67;76.37;;;13.10;99.90;;;;;;5015690;28;20425;-77
2023/10/22 08:54:13;;;;;;;71.90;64.07;;;13.10;99.90;;;;;;5033463;28;20570;-77
2023/10/22 08:56:41;;;;;;;94.00;85.37;;;13.10;99.90;;;;;;5032837;28;20174;-77
2023/10/22 08:59:08;;;;;;;78.87;70.83;;;13.10;99.90;;;;;;5033503;28;20188;-77
2023/10/22 09:01:34;;;;;;;75.63;67.83;;;13.30;99.90;;;;;;5033472;28;20396;-77
2023/10/22 09:04:01;;;;;;;86.37;78.27;;;13.30;99.90;;;;;;5033451;28;20424;-77
2023/10/22 09:06:27;;;;;;;85.60;77.47;;;13.40;99.90;;;;;;5033764;28;20384;-77
2023/10/22 09:08:52;;;;;;;87.13;79.03;;;13.40;99.90;;;;;;5033275;28;20789;-77
2023/10/22 09:11:20;;;;;;;95.03;86.67;;;13.50;99.90;;;;;;5033622;28;20766;-77
2023/10/22 09:13:46;;;;;;;91.37;82.90;;;13.50;99.90;;;;;;5033457;28;20190;-77
2023/10/22 09:16:12;;;;;;;85.93;77.83;;;13.40;99.90;;;;;;5033216;28;20488;-77
2023/10/22 09:18:44;;;;;;;87.07;79.00;;;13.50;99.90;;;;;;5033197;28;20965;-77
2023/10/22 09:21:10;;;;;;;89.23;81.13;;;13.40;99.90;;;;;;5015440;28;20495;-77
2023/10/22 09:23:36;;;;;;;83.47;75.30;;;13.40;99.90;;;;;;5032984;28;21008;-77
2023/10/22 09:26:02;;;;;;;95.83;87.23;;;13.30;99.90;;;;;;5033099;28;20431;-77
2023/10/22 09:28:29;;;;;;;100.43;91.63;;;13.30;99.90;;;;;;5033051;28;20916;-77
2023/10/22 09:30:57;;;;;;;82.40;74.43;;;13.40;99.90;;;;;;5032977;28;20448;-77
2023/10/22 09:33:49;;;;;;;102.37;93.80;;;13.40;99.90;;;;;;5033030;28;20974;-77
2023/10/22 09:36:14;;;;;;;91.87;83.60;;;13.40;99.90;;;;;;5029263;28;20424;-77
2023/10/22 09:38:48;;;;;;;93.10;84.77;;;13.50;99.90;;;;;;5032992;28;20405;-77
2023/10/22 09:41:31;;;;;;;91.57;83.30;;;13.50;99.90;;;;;;5033274;28;20489;-77
2023/10/22 09:43:59;;;;;;;93.83;85.37;;;13.40;99.90;;;;;;5017169;28;20921;-77
2023/10/22 09:46:34;;;;;;;92.33;83.53;;;13.50;99.90;;;;;;5033227;28;20404;-77
2023/10/22 09:49:07;;;;;;;93.43;85.13;;;13.50;99.90;;;;;;5032942;28;20408;-77
2023/10/22 09:51:40;;;;;;;90.27;82.00;;;13.50;99.90;;;;;;5032774;28;21020;-77
2023/10/22 09:54:07;;;;;;;93.93;85.10;;;13.50;99.90;;;;;;5032771;28;20478;-77
2023/10/22 09:56:47;;;;;;;100.53;91.97;;;13.50;99.90;;;;;;5033065;28;20813;-77
2023/10/22 09:59:13;;;;;;;86.07;77.87;;;13.50;99.90;;;;;;5033100;28;20913;-77
2023/10/22 10:01:39;;;;;;;95.37;86.73;;;13.50;99.90;;;;;;5032766;28;20447;-77
2023/10/22 10:04:05;;;;;;;90.53;82.27;;;13.50;99.90;;;;;;5033935;28;20189;-77
2023/10/22 10:06:33;;;;;;;93.00;84.60;;;13.60;99.90;;;;;;5032728;28;20405;-77
2023/10/22 10:09:03;;;;;;;100.27;91.67;;;13.60;99.90;;;;;;5037081;28;20526;-77
2023/10/22 10:11:30;;;;;;;89.47;81.33;;;13.50;99.90;;;;;;5036586;28;20407;-77
2023/10/22 10:13:55;;;;;;;84.93;76.93;;;13.60;99.90;;;;;;5036246;28;20412;-77
2023/10/22 10:16:24;;;;;;;87.17;78.97;;;13.70;99.90;;;;;;5036359;28;20404;-77
2023/10/22 10:19:00;;;;;;;86.17;78.00;;;13.50;99.90;;;;;;5002202;28;20644;-77
2023/10/22 10:21:36;;;;;;;95.90;87.43;;;13.60;99.90;;;;;;5036604;28;20613;-77
2023/10/22 10:24:20;;;;;;;89.73;81.47;;;13.60;99.90;;;;;;5036407;28;20545;-77
2023/10/22 10:27:11;;;;;;;93.37;84.97;;;13.60;99.90;;;;;;5036391;28;20400;-77
2023/10/22 10:29:37;;;;;;;93.17;84.87;;;13.70;99.90;;;;;;5035727;28;20455;-77
2023/10/22 10:32:17;;;;;;;81.80;73.70;;;13.80;99.90;;;;;;5036034;28;20404;-77
2023/10/22 10:34:48;;;;;;;89.70;81.47;;;13.80;99.90;;;;;;5035967;28;20404;-77
2023/10/22 10:37:16;;;;;;;95.17;86.80;;;13.90;99.90;;;;;;5036418;28;20764;-77
2023/10/22 10:39:46;;;;;;;100.13;91.57;;;13.90;99.90;;;;;;5036014;28;20408;-77
2023/10/22 10:42:36;;;;;;;100.10;91.17;;;13.90;99.90;;;;;;5018177;28;20408;-77
2023/10/22 10:45:04;;;;;;;91.13;82.93;;;13.90;99.90;;;;;;5035776;28;20414;-77
2023/10/22 10:47:33;;;;;;;93.43;85.27;;;14.00;99.90;;;;;;5035860;28;20401;-77
2023/10/22 10:50:04;;;;;;;98.63;89.63;;;14.00;99.90;;;;;;5018149;28;20463;-77
2023/10/22 10:52:38;;;;;;;88.57;80.37;;;13.90;99.90;;;;;;5035883;28;20440;-77
2023/10/22 10:55:29;;;;;;;109.13;99.57;;;13.80;99.90;;;;;;5035988;28;20408;-77
2023/10/22 10:57:55;;;;;;;82.07;74.20;;;13.90;99.90;;;;;;5035845;28;20377;-77
2023/10/22 11:00:30;;;;;;;101.77;92.77;;;14.00;99.90;;;;;;5036094;28;20409;-77
2023/10/22 11:03:02;;;;;;;87.10;79.13;;;14.00;99.90;;;;;;5035807;28;20455;-77
2023/10/22 11:05:39;;;;;;;94.30;85.93;;;14.00;99.90;;;;;;5036131;28;20730;-77
2023/10/22 11:08:18;;;;;;;92.47;84.27;;;14.00;99.90;;;;;;5036008;28;20423;-77
2023/10/22 11:10:48;;;;;;;86.27;78.30;;;14.10;99.90;;;;;;5035609;28;20447;-77
2023/10/22 11:13:14;;;;;;;96.60;88.23;;;14.00;99.90;;;;;;5035969;28;20428;-77
2023/10/22 11:15:40;;;;;;;104.00;94.90;;;13.90;99.90;;;;;;5035715;28;20403;-77
2023/10/22 11:18:10;;;;;;;87.97;79.90;;;13.90;99.90;;;;;;5035107;28;20397;-78
2023/10/22 11:20:38;;;;;;;100.20;91.53;;;13.90;99.90;;;;;;5035395;28;20374;-77
2023/10/22 11:23:15;;;;;;;85.77;77.80;;;13.90;99.90;;;;;;5035548;28;20421;-77
2023/10/22 11:25:42;;;;;;;83.93;76.03;;;13.90;99.90;;;;;;5036054;28;20472;-77
2023/10/22 11:28:08;;;;;;;95.83;87.47;;;13.90;99.90;;;;;;5017662;28;20462;-78
2023/10/22 11:30:36;;;;;;;90.80;82.67;;;13.80;99.90;;;;;;5035256;28;20837;-77
2023/10/22 11:33:01;;;;;;;99.33;90.87;;;13.90;99.90;;;;;;5035233;28;20678;-77
2023/10/22 11:35:30;;;;;;;113.83;104.43;;;13.90;99.90;;;;;;5035247;28;20393;-77
2023/10/22 11:37:57;;;;;;;103.83;95.17;;;14.00;99.90;;;;;;5035489;28;20248;-77
2023/10/22 11:40:30;;;;;;;89.60;81.50;;;14.10;99.90;;;;;;5035476;28;20415;-77
2023/10/22 11:43:03;;;;;;;91.30;83.03;;;14.20;99.90;;;;;;5035130;28;20793;-77
2023/10/22 11:45:34;;;;;;;103.83;94.63;;;14.00;99.90;;;;;;5035462;28;20472;-78
2023/10/22 11:48:19;;;;;;;100.30;91.40;;;13.80;99.90;;;;;;5035198;28;20392;-77
2023/10/22 11:50:50;;;;;;;90.83;82.60;;;13.80;99.90;;;;;;5034868;28;20436;-77
2023/10/22 11:53:19;;;;;;;92.57;84.40;;;13.80;99.90;;;;;;5034600;28;20440;-77
2023/10/22 11:55:45;;;;;;;114.30;104.90;;;14.00;99.90;;;;;;5034668;28;20416;-77
2023/10/22 11:58:18;;;;;;;94.00;85.63;;;14.00;99.90;;;;;;5034623;28;20495;-77
2023/10/22 12:00:45;;;;;;;80.97;73.03;;;14.00;99.90;;;;;;5034660;28;20535;-77
2023/10/22 12:03:11;;;;;;;90.57;82.33;;;14.10;99.90;;;;;;5034624;28;20435;-77
2023/10/22 12:05:37;;;;;;;97.57;89.10;;;14.00;99.90;;;;;;5034434;28;20400;-77
2023/10/22 12:08:03;;;;;;;109.53;100.00;;;14.00;99.90;;;;;;5034703;28;20646;-77
2023/10/22 12:10:28;;;;;;;90.87;82.53;;;14.00;99.90;;;;;;5034463;28;20451;-77
2023/10/22 12:12:54;;;;;;;96.77;88.30;;;14.10;99.90;;;;;;5034456;28;20182;-77
2023/10/22 12:15:20;;;;;;;109.27;99.87;;;14.20;99.90;;;;;;5034773;28;20170;-77
2023/10/22 12:17:46;;;;;;;91.43;82.93;;;14.20;99.90;;;;;;5034240;28;20706;-77
2023/10/22 12:20:11;;;;;;;90.97;82.73;;;14.10;99.90;;;;;;5034399;28;20413;-77
2023/10/22 12:22:37;;;;;;;96.33;87.93;;;14.10;99.90;;;;;;5034130;28;20185;-77
2023/10/22 12:25:06;;;;;;;99.63;91.00;;;14.10;99.90;;;;;;5034440;28;20914;-77
2023/10/22 12:27:32;;;;;;;89.53;81.27;;;14.30;99.90;;;;;;5034020;28;20161;-77
2023/10/22 12:30:01;;;;;;;88.43;80.17;;;14.20;99.90;;;;;;5033948;28;20540;-77